sensor_id;sensor_type;location;lat;lon;timestamp;temperature;humidity
27306;DHT22;14792;50.886;6.468;2022-08-01T00:02:01;20.80;99.90
27306;DHT22;14792;50.886;6.468;2022-08-01T00:05:03;20.80;99.90
27306;DHT22;14792;50.886;6.468;2022-08-01T00:08:04;20.80;99.90
27306;DHT22;14792;50.886;6.468;2022-08-01T00:11:06;20.80;99.90
27306;DHT22;14792;50.886;6.468;2022-08-01T00:14:07;20.60;99.90
27306;DHT22;14792;50.886;6.468;2022-08-01T00:17:09;20.60;99.90
27306;DHT22;14792;50.886;6.468;2022-08-01T00:20:11;20.40;99.90
27306;DHT22;14792;50.886;6.468;2022-08-01T00:23:12;20.40;99.90
27306;DHT22;14792;50.886;6.468;2022-08-01T00:26:14;20.30;99.90
27306;DHT22;14792;50.886;6.468;2022-08-01T00:29:15;20.30;99.90
27306;DHT22;14792;50.886;6.468;2022-08-01T00:32:17;20.20;99.90
27306;DHT22;14792;50.886;6.468;2022-08-01T00:35:18;20.20;99.90
27306;DHT22;14792;50.886;6.468;2022-08-01T00:38:20;20.10;99.90
27306;DHT22;14792;50.886;6.468;2022-08-01T00:41:22;20.00;99.90
27306;DHT22;14792;50.886;6.468;2022-08-01T00:44:23;20.00;99.90
27306;DHT22;14792;50.886;6.468;2022-08-01T00:47:25;19.90;99.90
27306;DHT22;14792;50.886;6.468;2022-08-01T00:50:27;19.90;99.90
27306;DHT22;14792;50.886;6.468;2022-08-01T00:53:28;19.90;99.90
27306;DHT22;14792;50.886;6.468;2022-08-01T00:56:30;19.90;99.90
27306;DHT22;14792;50.886;6.468;2022-08-01T00:59:31;19.90;99.90
27306;DHT22;14792;50.886;6.468;2022-08-01T01:02:33;19.90;99.90
27306;DHT22;14792;50.886;6.468;2022-08-01T01:05:36;19.80;99.90
27306;DHT22;14792;50.886;6.468;2022-08-01T01:08:46;19.90;99.90
27306;DHT22;14792;50.886;6.468;2022-08-01T01:11:47;19.80;99.90
27306;DHT22;14792;50.886;6.468;2022-08-01T01:14:51;19.80;99.90
27306;DHT22;14792;50.886;6.468;2022-08-01T01:18:12;19.80;99.90
27306;DHT22;14792;50.886;6.468;2022-08-01T01:30:53;19.70;99.90
27306;DHT22;14792;50.886;6.468;2022-08-01T01:33:55;19.70;99.90
27306;DHT22;14792;50.886;6.468;2022-08-01T01:36:56;19.70;99.90
27306;DHT22;14792;50.886;6.468;2022-08-01T01:39:58;19.60;99.90
27306;DHT22;14792;50.886;6.468;2022-08-01T01:43:00;19.60;99.90
27306;DHT22;14792;50.886;6.468;2022-08-01T01:46:02;19.60;99.90
27306;DHT22;14792;50.886;6.468;2022-08-01T01:49:03;19.60;99.90
27306;DHT22;14792;50.886;6.468;2022-08-01T01:52:04;19.60;99.90
27306;DHT22;14792;50.886;6.468;2022-08-01T01:55:06;19.60;99.90
27306;DHT22;14792;50.886;6.468;2022-08-01T01:58:08;19.60;99.90
27306;DHT22;14792;50.886;6.468;2022-08-01T02:01:10;19.60;99.90
27306;DHT22;14792;50.886;6.468;2022-08-01T02:04:11;19.60;99.90
27306;DHT22;14792;50.886;6.468;2022-08-01T02:07:19;19.60;99.90
27306;DHT22;14792;50.886;6.468;2022-08-01T02:10:14;19.60;99.90
27306;DHT22;14792;50.886;6.468;2022-08-01T02:13:16;19.60;99.90
27306;DHT22;14792;50.886;6.468;2022-08-01T02:16:18;19.60;99.90
27306;DHT22;14792;50.886;6.468;2022-08-01T02:19:19;19.60;99.90
27306;DHT22;14792;50.886;6.468;2022-08-01T02:22:59;19.60;99.90
27306;DHT22;14792;50.886;6.468;2022-08-01T02:25:48;19.60;99.90
27306;DHT22;14792;50.886;6.468;2022-08-01T02:28:56;19.60;99.90
27306;DHT22;14792;50.886;6.468;2022-08-01T02:31:55;19.60;99.90
27306;DHT22;14792;50.886;6.468;2022-08-01T02:34:57;19.60;99.90
27306;DHT22;14792;50.886;6.468;2022-08-01T02:37:58;19.70;99.90
27306;DHT22;14792;50.886;6.468;2022-08-01T02:41:05;19.70;99.90
27306;DHT22;14792;50.886;6.468;2022-08-01T02:44:02;19.70;99.90
27306;DHT22;14792;50.886;6.468;2022-08-01T02:47:03;19.70;99.90
27306;DHT22;14792;50.886;6.468;2022-08-01T02:50:05;19.70;99.90
27306;DHT22;14792;50.886;6.468;2022-08-01T02:53:06;19.70;99.90
27306;DHT22;14792;50.886;6.468;2022-08-01T02:56:08;19.70;99.90
27306;DHT22;14792;50.886;6.468;2022-08-01T02:59:13;19.80;99.90
27306;DHT22;14792;50.886;6.468;2022-08-01T03:02:14;19.80;99.90
27306;DHT22;14792;50.886;6.468;2022-08-01T03:05:15;19.70;99.90
27306;DHT22;14792;50.886;6.468;2022-08-01T03:08:17;19.80;99.90
27306;DHT22;14792;50.886;6.468;2022-08-01T03:11:18;19.70;99.90
27306;DHT22;14792;50.886;6.468;2022-08-01T03:14:20;19.70;99.90
27306;DHT22;14792;50.886;6.468;2022-08-01T03:17:22;19.70;99.90
27306;DHT22;14792;50.886;6.468;2022-08-01T03:20:23;19.80;99.90
27306;DHT22;14792;50.886;6.468;2022-08-01T03:23:25;19.70;99.90
27306;DHT22;14792;50.886;6.468;2022-08-01T03:26:30;19.70;99.90
27306;DHT22;14792;50.886;6.468;2022-08-01T03:29:30;19.70;99.90
27306;DHT22;14792;50.886;6.468;2022-08-01T03:32:32;19.70;99.90
27306;DHT22;14792;50.886;6.468;2022-08-01T03:35:34;19.70;99.90
27306;DHT22;14792;50.886;6.468;2022-08-01T03:38:36;19.70;99.90
27306;DHT22;14792;50.886;6.468;2022-08-01T03:41:40;19.70;99.90
27306;DHT22;14792;50.886;6.468;2022-08-01T03:44:41;19.70;99.90
27306;DHT22;14792;50.886;6.468;2022-08-01T03:47:43;19.70;99.90
27306;DHT22;14792;50.886;6.468;2022-08-01T03:50:48;19.70;99.90
27306;DHT22;14792;50.886;6.468;2022-08-01T03:53:49;19.70;99.90
27306;DHT22;14792;50.886;6.468;2022-08-01T03:56:51;19.70;99.90
27306;DHT22;14792;50.886;6.468;2022-08-01T03:59:52;19.70;99.90
27306;DHT22;14792;50.886;6.468;2022-08-01T04:02:54;19.70;99.90
27306;DHT22;14792;50.886;6.468;2022-08-01T04:05:55;19.70;99.90
27306;DHT22;14792;50.886;6.468;2022-08-01T04:08:57;19.70;99.90
27306;DHT22;14792;50.886;6.468;2022-08-01T04:11:59;19.80;99.90
27306;DHT22;14792;50.886;6.468;2022-08-01T04:15:00;19.70;99.90
27306;DHT22;14792;50.886;6.468;2022-08-01T04:18:02;19.70;99.90
27306;DHT22;14792;50.886;6.468;2022-08-01T04:21:03;19.70;99.90
27306;DHT22;14792;50.886;6.468;2022-08-01T04:24:14;19.70;99.90
27306;DHT22;14792;50.886;6.468;2022-08-01T04:27:11;19.70;99.90
27306;DHT22;14792;50.886;6.468;2022-08-01T04:30:08;19.70;99.90
27306;DHT22;14792;50.886;6.468;2022-08-01T04:33:10;19.80;99.90
27306;DHT22;14792;50.886;6.468;2022-08-01T04:36:12;19.70;99.90
27306;DHT22;14792;50.886;6.468;2022-08-01T04:39:13;19.80;99.90
27306;DHT22;14792;50.886;6.468;2022-08-01T04:42:15;19.80;99.90
27306;DHT22;14792;50.886;6.468;2022-08-01T04:45:16;19.70;99.90
27306;DHT22;14792;50.886;6.468;2022-08-01T04:48:18;19.70;99.90
27306;DHT22;14792;50.886;6.468;2022-08-01T04:51:22;19.70;99.90
27306;DHT22;14792;50.886;6.468;2022-08-01T04:54:24;19.70;99.90
27306;DHT22;14792;50.886;6.468;2022-08-01T04:57:26;19.70;99.90
27306;DHT22;14792;50.886;6.468;2022-08-01T05:00:27;19.70;99.90
27306;DHT22;14792;50.886;6.468;2022-08-01T05:03:29;19.70;99.90
27306;DHT22;14792;50.886;6.468;2022-08-01T05:06:30;19.70;99.90
27306;DHT22;14792;50.886;6.468;2022-08-01T05:09:32;19.70;99.90
27306;DHT22;14792;50.886;6.468;2022-08-01T05:12:33;19.70;99.90
27306;DHT22;14792;50.886;6.468;2022-08-01T05:15:35;19.70;99.90
27306;DHT22;14792;50.886;6.468;2022-08-01T05:18:40;19.70;99.90
27306;DHT22;14792;50.886;6.468;2022-08-01T05:21:41;19.70;99.90
27306;DHT22;14792;50.886;6.468;2022-08-01T05:24:43;19.70;99.90
27306;DHT22;14792;50.886;6.468;2022-08-01T05:27:45;19.70;99.90
27306;DHT22;14792;50.886;6.468;2022-08-01T05:30:46;19.70;99.90
27306;DHT22;14792;50.886;6.468;2022-08-01T05:33:48;19.80;99.90
27306;DHT22;14792;50.886;6.468;2022-08-01T05:36:49;19.70;99.90
27306;DHT22;14792;50.886;6.468;2022-08-01T05:39:51;19.60;99.90
27306;DHT22;14792;50.886;6.468;2022-08-01T05:42:53;19.60;99.90
27306;DHT22;14792;50.886;6.468;2022-08-01T05:45:54;19.60;99.90
27306;DHT22;14792;50.886;6.468;2022-08-01T05:48:59;19.70;99.90
27306;DHT22;14792;50.886;6.468;2022-08-01T05:51:57;19.70;99.90
27306;DHT22;14792;50.886;6.468;2022-08-01T05:54:59;19.80;99.90
27306;DHT22;14792;50.886;6.468;2022-08-01T05:58:01;19.70;99.90
27306;DHT22;14792;50.886;6.468;2022-08-01T06:01:02;19.70;99.90
27306;DHT22;14792;50.886;6.468;2022-08-01T06:04:04;19.70;99.90
27306;DHT22;14792;50.886;6.468;2022-08-01T06:07:06;19.80;99.90
27306;DHT22;14792;50.886;6.468;2022-08-01T06:10:07;19.70;99.90
27306;DHT22;14792;50.886;6.468;2022-08-01T06:13:09;19.80;99.90
27306;DHT22;14792;50.886;6.468;2022-08-01T06:16:10;19.80;99.90
27306;DHT22;14792;50.886;6.468;2022-08-01T06:19:12;19.90;99.90
27306;DHT22;14792;50.886;6.468;2022-08-01T06:22:14;19.90;99.90
27306;DHT22;14792;50.886;6.468;2022-08-01T06:25:15;20.00;99.90
27306;DHT22;14792;50.886;6.468;2022-08-01T06:28:17;20.00;99.90
27306;DHT22;14792;50.886;6.468;2022-08-01T06:31:18;19.90;99.90
27306;DHT22;14792;50.886;6.468;2022-08-01T06:34:20;19.80;99.90
27306;DHT22;14792;50.886;6.468;2022-08-01T06:37:22;19.70;99.90
27306;DHT22;14792;50.886;6.468;2022-08-01T06:40:23;19.50;99.90
27306;DHT22;14792;50.886;6.468;2022-08-01T06:43:25;19.60;99.90
27306;DHT22;14792;50.886;6.468;2022-08-01T06:46:26;19.50;99.90
27306;DHT22;14792;50.886;6.468;2022-08-01T06:49:28;19.60;99.90
27306;DHT22;14792;50.886;6.468;2022-08-01T06:52:30;19.70;99.90
27306;DHT22;14792;50.886;6.468;2022-08-01T06:55:31;19.60;99.90
27306;DHT22;14792;50.886;6.468;2022-08-01T06:58:33;19.80;99.90
27306;DHT22;14792;50.886;6.468;2022-08-01T07:01:34;19.90;99.90
27306;DHT22;14792;50.886;6.468;2022-08-01T07:04:36;19.90;99.90
27306;DHT22;14792;50.886;6.468;2022-08-01T07:07:38;19.90;99.90
27306;DHT22;14792;50.886;6.468;2022-08-01T07:10:39;20.00;99.90
27306;DHT22;14792;50.886;6.468;2022-08-01T07:13:41;20.10;99.90
27306;DHT22;14792;50.886;6.468;2022-08-01T07:16:42;20.10;99.90
27306;DHT22;14792;50.886;6.468;2022-08-01T07:19:44;20.20;99.90
27306;DHT22;14792;50.886;6.468;2022-08-01T07:22:46;20.20;99.90
27306;DHT22;14792;50.886;6.468;2022-08-01T07:25:47;20.50;99.90
27306;DHT22;14792;50.886;6.468;2022-08-01T07:28:49;20.60;99.90
27306;DHT22;14792;50.886;6.468;2022-08-01T07:31:51;20.80;99.90
27306;DHT22;14792;50.886;6.468;2022-08-01T07:34:52;20.80;99.90
27306;DHT22;14792;50.886;6.468;2022-08-01T07:37:54;20.80;99.90
27306;DHT22;14792;50.886;6.468;2022-08-01T07:40:55;20.80;99.90
27306;DHT22;14792;50.886;6.468;2022-08-01T07:43:59;20.70;99.90
27306;DHT22;14792;50.886;6.468;2022-08-01T07:47:01;20.70;99.90
27306;DHT22;14792;50.886;6.468;2022-08-01T07:50:03;20.90;99.90
27306;DHT22;14792;50.886;6.468;2022-08-01T07:53:04;20.80;99.90
27306;DHT22;14792;50.886;6.468;2022-08-01T07:56:06;20.90;99.90
27306;DHT22;14792;50.886;6.468;2022-08-01T07:59:07;21.10;99.90
27306;DHT22;14792;50.886;6.468;2022-08-01T08:02:09;21.30;99.90
27306;DHT22;14792;50.886;6.468;2022-08-01T08:05:11;21.50;99.90
27306;DHT22;14792;50.886;6.468;2022-08-01T08:08:12;21.80;99.90
27306;DHT22;14792;50.886;6.468;2022-08-01T08:11:14;21.90;99.90
27306;DHT22;14792;50.886;6.468;2022-08-01T08:14:16;21.90;99.90
27306;DHT22;14792;50.886;6.468;2022-08-01T08:17:17;22.10;99.90
27306;DHT22;14792;50.886;6.468;2022-08-01T08:20:18;22.10;99.90
27306;DHT22;14792;50.886;6.468;2022-08-01T08:23:20;22.30;99.90
27306;DHT22;14792;50.886;6.468;2022-08-01T08:26:40;22.80;99.90
27306;DHT22;14792;50.886;6.468;2022-08-01T08:29:42;23.00;99.90
27306;DHT22;14792;50.886;6.468;2022-08-01T08:32:43;23.40;99.90
27306;DHT22;14792;50.886;6.468;2022-08-01T08:35:45;23.10;99.90
27306;DHT22;14792;50.886;6.468;2022-08-01T08:38:47;22.80;99.90
27306;DHT22;14792;50.886;6.468;2022-08-01T08:41:48;22.60;99.90
27306;DHT22;14792;50.886;6.468;2022-08-01T08:44:50;22.40;99.90
27306;DHT22;14792;50.886;6.468;2022-08-01T08:47:52;22.30;99.90
27306;DHT22;14792;50.886;6.468;2022-08-01T08:50:53;22.20;99.90
27306;DHT22;14792;50.886;6.468;2022-08-01T08:53:55;22.30;99.90
27306;DHT22;14792;50.886;6.468;2022-08-01T08:56:56;22.50;99.90
27306;DHT22;14792;50.886;6.468;2022-08-01T08:59:58;22.60;99.90
27306;DHT22;14792;50.886;6.468;2022-08-01T09:02:59;23.00;99.90
27306;DHT22;14792;50.886;6.468;2022-08-01T09:06:01;23.10;99.90
27306;DHT22;14792;50.886;6.468;2022-08-01T09:09:03;23.10;99.90
27306;DHT22;14792;50.886;6.468;2022-08-01T09:12:04;22.80;99.90
27306;DHT22;14792;50.886;6.468;2022-08-01T09:15:06;22.80;99.90
27306;DHT22;14792;50.886;6.468;2022-08-01T09:18:08;22.80;99.90
27306;DHT22;14792;50.886;6.468;2022-08-01T09:21:18;22.80;99.90
27306;DHT22;14792;50.886;6.468;2022-08-01T09:24:20;23.00;99.90
27306;DHT22;14792;50.886;6.468;2022-08-01T09:27:21;23.20;99.90
27306;DHT22;14792;50.886;6.468;2022-08-01T09:30:25;23.30;99.90
27306;DHT22;14792;50.886;6.468;2022-08-01T09:33:28;23.10;99.90
27306;DHT22;14792;50.886;6.468;2022-08-01T09:36:47;22.90;99.90
27306;DHT22;14792;50.886;6.468;2022-08-01T09:39:45;22.80;99.90
27306;DHT22;14792;50.886;6.468;2022-08-01T09:42:46;22.80;99.90
27306;DHT22;14792;50.886;6.468;2022-08-01T09:45:48;22.80;99.90
27306;DHT22;14792;50.886;6.468;2022-08-01T09:48:59;22.80;99.90
27306;DHT22;14792;50.886;6.468;2022-08-01T09:52:09;23.20;99.90
27306;DHT22;14792;50.886;6.468;2022-08-01T09:55:03;23.00;99.90
27306;DHT22;14792;50.886;6.468;2022-08-01T09:58:03;22.80;99.90
27306;DHT22;14792;50.886;6.468;2022-08-01T10:01:05;22.80;99.90
27306;DHT22;14792;50.886;6.468;2022-08-01T10:04:07;22.70;99.90
27306;DHT22;14792;50.886;6.468;2022-08-01T10:07:08;22.70;99.90
27306;DHT22;14792;50.886;6.468;2022-08-01T10:10:13;22.80;99.90
27306;DHT22;14792;50.886;6.468;2022-08-01T10:13:14;22.80;99.90
27306;DHT22;14792;50.886;6.468;2022-08-01T10:16:16;22.80;99.90
27306;DHT22;14792;50.886;6.468;2022-08-01T10:19:17;23.00;99.90
27306;DHT22;14792;50.886;6.468;2022-08-01T10:22:19;23.40;99.90
27306;DHT22;14792;50.886;6.468;2022-08-01T10:25:21;23.50;99.90
27306;DHT22;14792;50.886;6.468;2022-08-01T10:28:22;23.40;99.90
27306;DHT22;14792;50.886;6.468;2022-08-01T10:31:24;23.10;99.90
27306;DHT22;14792;50.886;6.468;2022-08-01T10:34:25;23.20;99.90
27306;DHT22;14792;50.886;6.468;2022-08-01T10:37:27;23.30;99.90
27306;DHT22;14792;50.886;6.468;2022-08-01T10:40:28;23.30;99.90
27306;DHT22;14792;50.886;6.468;2022-08-01T10:43:30;23.30;99.90
27306;DHT22;14792;50.886;6.468;2022-08-01T10:46:32;23.40;99.90
27306;DHT22;14792;50.886;6.468;2022-08-01T10:49:34;23.50;99.90
27306;DHT22;14792;50.886;6.468;2022-08-01T10:52:35;23.60;99.90
27306;DHT22;14792;50.886;6.468;2022-08-01T10:56:02;23.70;99.90
27306;DHT22;14792;50.886;6.468;2022-08-01T10:59:03;23.90;99.90
27306;DHT22;14792;50.886;6.468;2022-08-01T11:02:04;24.00;99.90
27306;DHT22;14792;50.886;6.468;2022-08-01T11:05:18;24.00;99.90
27306;DHT22;14792;50.886;6.468;2022-08-01T11:08:22;24.10;99.90
27306;DHT22;14792;50.886;6.468;2022-08-01T11:11:24;24.10;99.90
27306;DHT22;14792;50.886;6.468;2022-08-01T11:14:25;24.20;99.90
27306;DHT22;14792;50.886;6.468;2022-08-01T11:17:39;24.40;99.90
27306;DHT22;14792;50.886;6.468;2022-08-01T11:20:43;24.40;99.90
27306;DHT22;14792;50.886;6.468;2022-08-01T11:23:48;24.40;99.90
27306;DHT22;14792;50.886;6.468;2022-08-01T11:33:17;24.80;99.90
27306;DHT22;14792;50.886;6.468;2022-08-01T11:36:18;24.80;99.90
27306;DHT22;14792;50.886;6.468;2022-08-01T11:39:22;24.70;99.90
27306;DHT22;14792;50.886;6.468;2022-08-01T11:42:24;24.80;99.90
27306;DHT22;14792;50.886;6.468;2022-08-01T11:45:45;25.00;99.90
27306;DHT22;14792;50.886;6.468;2022-08-01T11:48:27;25.00;99.90
27306;DHT22;14792;50.886;6.468;2022-08-01T11:51:31;25.10;99.90
27306;DHT22;14792;50.886;6.468;2022-08-01T11:54:34;25.20;99.90
27306;DHT22;14792;50.886;6.468;2022-08-01T11:57:34;25.20;99.90
27306;DHT22;14792;50.886;6.468;2022-08-01T12:00:36;25.20;99.90
27306;DHT22;14792;50.886;6.468;2022-08-01T12:03:38;25.40;99.90
27306;DHT22;14792;50.886;6.468;2022-08-01T12:06:39;25.40;99.90
27306;DHT22;14792;50.886;6.468;2022-08-01T12:09:41;25.40;99.90
27306;DHT22;14792;50.886;6.468;2022-08-01T12:12:46;25.50;99.90
27306;DHT22;14792;50.886;6.468;2022-08-01T12:15:47;25.40;99.90
27306;DHT22;14792;50.886;6.468;2022-08-01T12:18:48;25.90;99.90
27306;DHT22;14792;50.886;6.468;2022-08-01T12:22:12;25.80;99.90
27306;DHT22;14792;50.886;6.468;2022-08-01T12:25:16;25.50;99.90
27306;DHT22;14792;50.886;6.468;2022-08-01T12:28:17;25.50;99.90
27306;DHT22;14792;50.886;6.468;2022-08-01T12:31:19;25.70;99.90
27306;DHT22;14792;50.886;6.468;2022-08-01T12:34:27;25.60;99.90
27306;DHT22;14792;50.886;6.468;2022-08-01T12:37:28;25.90;99.90
27306;DHT22;14792;50.886;6.468;2022-08-01T12:40:33;25.70;99.90
27306;DHT22;14792;50.886;6.468;2022-08-01T12:43:33;25.50;99.90
27306;DHT22;14792;50.886;6.468;2022-08-01T12:46:35;25.70;99.90
27306;DHT22;14792;50.886;6.468;2022-08-01T12:49:36;25.50;99.90
27306;DHT22;14792;50.886;6.468;2022-08-01T12:52:38;25.50;99.90
27306;DHT22;14792;50.886;6.468;2022-08-01T12:55:53;25.80;99.90
27306;DHT22;14792;50.886;6.468;2022-08-01T12:58:53;26.00;99.90
27306;DHT22;14792;50.886;6.468;2022-08-01T13:01:55;25.90;99.90
27306;DHT22;14792;50.886;6.468;2022-08-01T13:04:56;26.00;99.90
27306;DHT22;14792;50.886;6.468;2022-08-01T13:07:58;26.40;99.90
27306;DHT22;14792;50.886;6.468;2022-08-01T13:11:03;26.50;99.90
27306;DHT22;14792;50.886;6.468;2022-08-01T13:14:01;26.40;99.90
27306;DHT22;14792;50.886;6.468;2022-08-01T13:17:03;26.30;99.90
27306;DHT22;14792;50.886;6.468;2022-08-01T13:20:05;26.30;99.90
27306;DHT22;14792;50.886;6.468;2022-08-01T13:23:19;26.30;99.90
27306;DHT22;14792;50.886;6.468;2022-08-01T13:26:36;26.50;99.90
27306;DHT22;14792;50.886;6.468;2022-08-01T13:29:34;26.60;99.90
27306;DHT22;14792;50.886;6.468;2022-08-01T13:32:32;26.80;99.90
27306;DHT22;14792;50.886;6.468;2022-08-01T13:35:33;26.70;99.90
27306;DHT22;14792;50.886;6.468;2022-08-01T13:38:35;26.80;99.90
27306;DHT22;14792;50.886;6.468;2022-08-01T13:41:54;26.70;99.90
27306;DHT22;14792;50.886;6.468;2022-08-01T13:44:56;26.70;99.90
27306;DHT22;14792;50.886;6.468;2022-08-01T13:47:57;26.70;99.90
27306;DHT22;14792;50.886;6.468;2022-08-01T13:50:59;26.70;99.90
27306;DHT22;14792;50.886;6.468;2022-08-01T13:54:00;26.60;99.90
27306;DHT22;14792;50.886;6.468;2022-08-01T13:57:02;26.60;99.90
27306;DHT22;14792;50.886;6.468;2022-08-01T14:00:07;26.40;99.90
27306;DHT22;14792;50.886;6.468;2022-08-01T14:03:05;26.50;99.90
27306;DHT22;14792;50.886;6.468;2022-08-01T14:06:07;26.60;99.90
27306;DHT22;14792;50.886;6.468;2022-08-01T14:09:08;26.30;99.90
27306;DHT22;14792;50.886;6.468;2022-08-01T14:12:10;26.50;99.90
27306;DHT22;14792;50.886;6.468;2022-08-01T14:15:12;26.50;99.90
27306;DHT22;14792;50.886;6.468;2022-08-01T14:18:13;26.60;99.90
27306;DHT22;14792;50.886;6.468;2022-08-01T14:21:15;26.60;99.90
27306;DHT22;14792;50.886;6.468;2022-08-01T14:24:16;26.70;99.90
27306;DHT22;14792;50.886;6.468;2022-08-01T14:27:18;26.80;99.90
27306;DHT22;14792;50.886;6.468;2022-08-01T14:30:19;26.90;99.90
27306;DHT22;14792;50.886;6.468;2022-08-01T14:33:21;26.90;99.90
27306;DHT22;14792;50.886;6.468;2022-08-01T14:36:23;26.90;99.90
27306;DHT22;14792;50.886;6.468;2022-08-01T14:39:24;27.00;99.90
27306;DHT22;14792;50.886;6.468;2022-08-01T14:42:26;26.90;99.90
27306;DHT22;14792;50.886;6.468;2022-08-01T14:45:28;26.90;99.90
27306;DHT22;14792;50.886;6.468;2022-08-01T14:48:29;26.90;99.90
27306;DHT22;14792;50.886;6.468;2022-08-01T14:51:31;27.00;99.90
27306;DHT22;14792;50.886;6.468;2022-08-01T14:54:32;27.30;99.90
27306;DHT22;14792;50.886;6.468;2022-08-01T14:57:34;27.10;99.90
27306;DHT22;14792;50.886;6.468;2022-08-01T15:00:35;27.00;99.90
27306;DHT22;14792;50.886;6.468;2022-08-01T15:03:37;26.80;99.90
27306;DHT22;14792;50.886;6.468;2022-08-01T15:06:39;26.60;99.90
27306;DHT22;14792;50.886;6.468;2022-08-01T15:09:41;26.20;99.90
27306;DHT22;14792;50.886;6.468;2022-08-01T15:12:42;26.10;99.90
27306;DHT22;14792;50.886;6.468;2022-08-01T15:15:43;26.00;99.90
27306;DHT22;14792;50.886;6.468;2022-08-01T15:18:45;25.80;99.90
27306;DHT22;14792;50.886;6.468;2022-08-01T15:21:47;25.80;99.90
27306;DHT22;14792;50.886;6.468;2022-08-01T15:24:49;25.70;99.90
27306;DHT22;14792;50.886;6.468;2022-08-01T15:27:50;25.80;99.90
27306;DHT22;14792;50.886;6.468;2022-08-01T15:30:51;26.00;99.90
27306;DHT22;14792;50.886;6.468;2022-08-01T15:33:53;26.30;99.90
27306;DHT22;14792;50.886;6.468;2022-08-01T15:36:55;26.20;99.90
27306;DHT22;14792;50.886;6.468;2022-08-01T15:39:56;26.20;99.90
27306;DHT22;14792;50.886;6.468;2022-08-01T15:42:58;26.30;99.90
27306;DHT22;14792;50.886;6.468;2022-08-01T15:45:59;26.20;99.90
27306;DHT22;14792;50.886;6.468;2022-08-01T15:49:04;26.20;99.90
27306;DHT22;14792;50.886;6.468;2022-08-01T15:52:05;26.20;99.90
27306;DHT22;14792;50.886;6.468;2022-08-01T15:55:07;26.10;99.90
27306;DHT22;14792;50.886;6.468;2022-08-01T15:58:08;26.10;99.90
27306;DHT22;14792;50.886;6.468;2022-08-01T16:01:10;26.10;99.90
27306;DHT22;14792;50.886;6.468;2022-08-01T16:04:11;25.90;99.90
27306;DHT22;14792;50.886;6.468;2022-08-01T16:07:13;25.60;99.90
27306;DHT22;14792;50.886;6.468;2022-08-01T16:10:14;25.50;99.90
27306;DHT22;14792;50.886;6.468;2022-08-01T16:13:16;25.60;99.90
27306;DHT22;14792;50.886;6.468;2022-08-01T16:16:18;25.60;99.90
27306;DHT22;14792;50.886;6.468;2022-08-01T16:19:19;25.60;99.90
27306;DHT22;14792;50.886;6.468;2022-08-01T16:22:21;25.40;99.90
27306;DHT22;14792;50.886;6.468;2022-08-01T16:25:22;25.50;99.90
27306;DHT22;14792;50.886;6.468;2022-08-01T16:28:24;25.40;99.90
27306;DHT22;14792;50.886;6.468;2022-08-01T16:31:25;25.50;99.90
27306;DHT22;14792;50.886;6.468;2022-08-01T16:34:27;25.60;99.90
27306;DHT22;14792;50.886;6.468;2022-08-01T16:37:29;25.90;99.90
27306;DHT22;14792;50.886;6.468;2022-08-01T16:40:31;25.90;99.90
27306;DHT22;14792;50.886;6.468;2022-08-01T16:43:32;26.10;99.90
27306;DHT22;14792;50.886;6.468;2022-08-01T16:46:34;26.00;99.90
27306;DHT22;14792;50.886;6.468;2022-08-01T16:49:35;25.60;99.90
27306;DHT22;14792;50.886;6.468;2022-08-01T16:52:37;25.40;99.90
27306;DHT22;14792;50.886;6.468;2022-08-01T16:55:38;25.10;99.90
27306;DHT22;14792;50.886;6.468;2022-08-01T16:58:40;25.10;99.90
27306;DHT22;14792;50.886;6.468;2022-08-01T17:01:41;25.20;99.90
27306;DHT22;14792;50.886;6.468;2022-08-01T17:04:44;25.30;99.90
27306;DHT22;14792;50.886;6.468;2022-08-01T17:07:46;25.50;99.90
27306;DHT22;14792;50.886;6.468;2022-08-01T17:10:48;25.60;99.90
27306;DHT22;14792;50.886;6.468;2022-08-01T17:13:49;25.40;99.90
27306;DHT22;14792;50.886;6.468;2022-08-01T17:16:51;25.00;99.90
27306;DHT22;14792;50.886;6.468;2022-08-01T17:19:53;25.00;99.90
27306;DHT22;14792;50.886;6.468;2022-08-01T17:22:54;24.90;99.90
27306;DHT22;14792;50.886;6.468;2022-08-01T17:25:56;24.90;99.90
27306;DHT22;14792;50.886;6.468;2022-08-01T17:28:57;24.70;99.90
27306;DHT22;14792;50.886;6.468;2022-08-01T17:31:59;24.50;99.90
27306;DHT22;14792;50.886;6.468;2022-08-01T17:35:01;24.60;99.90
27306;DHT22;14792;50.886;6.468;2022-08-01T17:38:02;24.50;99.90
27306;DHT22;14792;50.886;6.468;2022-08-01T17:41:04;24.40;99.90
27306;DHT22;14792;50.886;6.468;2022-08-01T17:44:05;24.30;99.90
27306;DHT22;14792;50.886;6.468;2022-08-01T17:47:07;24.10;99.90
27306;DHT22;14792;50.886;6.468;2022-08-01T17:50:09;24.10;99.90
27306;DHT22;14792;50.886;6.468;2022-08-01T17:53:10;24.10;99.90
27306;DHT22;14792;50.886;6.468;2022-08-01T17:56:12;24.10;99.90
27306;DHT22;14792;50.886;6.468;2022-08-01T17:59:13;24.20;99.90
27306;DHT22;14792;50.886;6.468;2022-08-01T18:02:15;24.10;99.90
27306;DHT22;14792;50.886;6.468;2022-08-01T18:05:16;23.90;99.90
27306;DHT22;14792;50.886;6.468;2022-08-01T18:08:18;23.80;99.90
27306;DHT22;14792;50.886;6.468;2022-08-01T18:11:20;23.70;99.90
27306;DHT22;14792;50.886;6.468;2022-08-01T18:14:21;23.60;99.90
27306;DHT22;14792;50.886;6.468;2022-08-01T18:17:23;23.50;99.90
27306;DHT22;14792;50.886;6.468;2022-08-01T18:20:24;23.30;99.90
27306;DHT22;14792;50.886;6.468;2022-08-01T18:23:26;23.30;99.90
27306;DHT22;14792;50.886;6.468;2022-08-01T18:26:27;23.20;99.90
27306;DHT22;14792;50.886;6.468;2022-08-01T18:29:29;23.20;99.90
27306;DHT22;14792;50.886;6.468;2022-08-01T18:32:31;23.10;99.90
27306;DHT22;14792;50.886;6.468;2022-08-01T18:35:32;23.10;99.90
27306;DHT22;14792;50.886;6.468;2022-08-01T18:38:34;23.00;99.90
27306;DHT22;14792;50.886;6.468;2022-08-01T18:41:36;22.90;99.90
27306;DHT22;14792;50.886;6.468;2022-08-01T18:44:37;22.90;99.90
27306;DHT22;14792;50.886;6.468;2022-08-01T18:47:39;22.80;99.90
27306;DHT22;14792;50.886;6.468;2022-08-01T18:50:40;22.70;99.90
27306;DHT22;14792;50.886;6.468;2022-08-01T18:53:42;22.60;99.90
27306;DHT22;14792;50.886;6.468;2022-08-01T18:56:44;22.60;99.90
27306;DHT22;14792;50.886;6.468;2022-08-01T18:59:45;22.50;99.90
27306;DHT22;14792;50.886;6.468;2022-08-01T19:02:47;22.40;99.90
27306;DHT22;14792;50.886;6.468;2022-08-01T19:05:48;22.30;99.90
27306;DHT22;14792;50.886;6.468;2022-08-01T19:08:50;22.20;99.90
27306;DHT22;14792;50.886;6.468;2022-08-01T19:11:51;22.10;99.90
27306;DHT22;14792;50.886;6.468;2022-08-01T19:14:53;22.00;99.90
27306;DHT22;14792;50.886;6.468;2022-08-01T19:17:55;21.90;99.90
27306;DHT22;14792;50.886;6.468;2022-08-01T19:20:56;21.80;99.90
27306;DHT22;14792;50.886;6.468;2022-08-01T19:23:58;21.70;99.90
27306;DHT22;14792;50.886;6.468;2022-08-01T19:27:18;21.60;99.90